sensor_id;sensor_type;location;lat;lon;timestamp;temperature;humidity
69990;DHT22;57331;52.054;5.294;2023-06-14T00:00:55;19.00;19.70
69990;DHT22;57331;52.054;5.294;2023-06-14T00:10:48;19.30;25.10
69990;DHT22;57331;52.054;5.294;2023-06-14T00:13:15;19.40;25.20
69990;DHT22;57331;52.054;5.294;2023-06-14T00:28:02;21.00;26.80
69990;DHT22;57331;52.054;5.294;2023-06-14T00:30:30;20.30;26.50
69990;DHT22;57331;52.054;5.294;2023-06-14T00:45:17;18.30;19.60
69990;DHT22;57331;52.054;5.294;2023-06-14T00:47:45;19.40;16.70
69990;DHT22;57331;52.054;5.294;2023-06-14T00:50:13;20.20;27.50
69990;DHT22;57331;52.054;5.294;2023-06-14T00:52:40;20.10;27.50
69990;DHT22;57331;52.054;5.294;2023-06-14T00:57:35;19.20;19.70
69990;DHT22;57331;52.054;5.294;2023-06-14T01:00:06;20.50;27.90
69990;DHT22;57331;52.054;5.294;2023-06-14T01:02:37;20.70;28.10
69990;DHT22;57331;52.054;5.294;2023-06-14T01:05:06;17.90;27.10
69990;DHT22;57331;52.054;5.294;2023-06-14T01:07:41;19.20;17.10
69990;DHT22;57331;52.054;5.294;2023-06-14T01:13:24;20.20;28.30
69990;DHT22;57331;52.054;5.294;2023-06-14T01:15:55;19.10;17.40
69990;DHT22;57331;52.054;5.294;2023-06-14T01:18:22;19.50;20.80
69990;DHT22;57331;52.054;5.294;2023-06-14T01:20:50;20.50;28.70
69990;DHT22;57331;52.054;5.294;2023-06-14T01:25:52;18.00;27.70
69990;DHT22;57331;52.054;5.294;2023-06-14T01:30:53;18.90;17.70
69990;DHT22;57331;52.054;5.294;2023-06-14T01:33:24;19.00;17.80
69990;DHT22;57331;52.054;5.294;2023-06-14T01:35:53;20.30;29.00
69990;DHT22;57331;52.054;5.294;2023-06-14T01:38:26;17.70;27.80
69990;DHT22;57331;52.054;5.294;2023-06-14T01:40:55;17.70;28.00
69990;DHT22;57331;52.054;5.294;2023-06-14T01:43:25;17.80;28.10
69990;DHT22;57331;52.054;5.294;2023-06-14T01:45:54;18.10;28.30
69990;DHT22;57331;52.054;5.294;2023-06-14T01:50:50;17.60;27.20
69990;DHT22;57331;52.054;5.294;2023-06-14T01:53:17;18.50;28.80
69990;DHT22;57331;52.054;5.294;2023-06-14T01:58:15;19.10;29.30
69990;DHT22;57331;52.054;5.294;2023-06-14T02:08:09;17.20;28.80
69990;DHT22;57331;52.054;5.294;2023-06-14T02:13:04;17.30;29.10
69990;DHT22;57331;52.054;5.294;2023-06-14T02:18:04;18.40;19.00
69990;DHT22;57331;52.054;5.294;2023-06-14T02:25:30;19.60;30.60
69990;DHT22;57331;52.054;5.294;2023-06-14T02:27:58;17.00;29.40
69990;DHT22;57331;52.054;5.294;2023-06-14T02:37:55;17.30;25.80
69990;DHT22;57331;52.054;5.294;2023-06-14T02:40:22;18.10;30.30
69990;DHT22;57331;52.054;5.294;2023-06-14T02:42:50;18.90;30.90
69990;DHT22;57331;52.054;5.294;2023-06-14T02:45:17;18.30;30.40
69990;DHT22;57331;52.054;5.294;2023-06-14T02:47:45;18.10;19.70
69990;DHT22;57331;52.054;5.294;2023-06-14T02:50:12;17.70;24.00
69990;DHT22;57331;52.054;5.294;2023-06-14T02:52:40;19.40;31.80
69990;DHT22;57331;52.054;5.294;2023-06-14T02:55:10;18.00;19.90
69990;DHT22;57331;52.054;5.294;2023-06-14T03:05:10;18.60;31.60
69990;DHT22;57331;52.054;5.294;2023-06-14T03:10:08;19.00;27.50
69990;DHT22;57331;52.054;5.294;2023-06-14T03:15:07;16.70;31.30
69990;DHT22;57331;52.054;5.294;2023-06-14T03:20:07;16.80;21.90
69990;DHT22;57331;52.054;5.294;2023-06-14T03:22:37;16.40;31.40
69990;DHT22;57331;52.054;5.294;2023-06-14T03:25:06;18.20;32.50
69990;DHT22;57331;52.054;5.294;2023-06-14T03:27:39;17.50;20.90
69990;DHT22;57331;52.054;5.294;2023-06-14T03:30:07;16.60;28.40
69990;DHT22;57331;52.054;5.294;2023-06-14T03:35:03;16.70;32.10
69990;DHT22;57331;52.054;5.294;2023-06-14T03:39:57;16.90;32.40
69990;DHT22;57331;52.054;5.294;2023-06-14T03:42:25;16.70;26.50
69990;DHT22;57331;52.054;5.294;2023-06-14T03:44:53;18.80;33.60
69990;DHT22;57331;52.054;5.294;2023-06-14T03:47:22;17.40;32.90
69990;DHT22;57331;52.054;5.294;2023-06-14T03:57:18;18.40;27.50
69990;DHT22;57331;52.054;5.294;2023-06-14T04:02:14;17.70;29.00
69990;DHT22;57331;52.054;5.294;2023-06-14T04:07:12;16.00;32.80
69990;DHT22;57331;52.054;5.294;2023-06-14T04:09:40;18.30;29.80
69990;DHT22;57331;52.054;5.294;2023-06-14T04:17:10;16.00;33.00
69990;DHT22;57331;52.054;5.294;2023-06-14T04:19:38;16.50;33.30
69990;DHT22;57331;52.054;5.294;2023-06-14T04:22:05;18.70;34.60
69990;DHT22;57331;52.054;5.294;2023-06-14T04:24:34;18.80;34.60
69990;DHT22;57331;52.054;5.294;2023-06-14T04:32:02;18.80;34.70
69990;DHT22;57331;52.054;5.294;2023-06-14T04:36:58;16.80;33.70
69990;DHT22;57331;52.054;5.294;2023-06-14T04:56:59;18.10;30.40
69990;DHT22;57331;52.054;5.294;2023-06-14T04:59:27;18.80;29.70
69990;DHT22;57331;52.054;5.294;2023-06-14T05:11:50;19.10;35.00
69990;DHT22;57331;52.054;5.294;2023-06-14T05:16:46;18.00;34.20
69990;DHT22;57331;52.054;5.294;2023-06-14T05:26:38;16.70;33.50
69990;DHT22;57331;52.054;5.294;2023-06-14T05:31:33;18.10;22.00
69990;DHT22;57331;52.054;5.294;2023-06-14T05:41:25;19.80;34.10
69990;DHT22;57331;52.054;5.294;2023-06-14T05:43:56;19.50;33.90
69990;DHT22;57331;52.054;5.294;2023-06-14T05:51:20;17.70;32.80
69990;DHT22;57331;52.054;5.294;2023-06-14T05:53:48;18.70;21.90
69990;DHT22;57331;52.054;5.294;2023-06-14T05:56:16;20.20;34.00
69990;DHT22;57331;52.054;5.294;2023-06-14T05:58:45;18.80;21.80
69990;DHT22;57331;52.054;5.294;2023-06-14T06:03:40;18.00;32.20
69990;DHT22;57331;52.054;5.294;2023-06-14T06:08:35;19.10;32.60
69990;DHT22;57331;52.054;5.294;2023-06-14T06:11:02;19.70;28.90
69990;DHT22;57331;52.054;5.294;2023-06-14T06:18:23;19.30;31.90
69990;DHT22;57331;52.054;5.294;2023-06-14T06:25:45;19.70;31.90
69990;DHT22;57331;52.054;5.294;2023-06-14T06:33:06;19.70;31.30
69990;DHT22;57331;52.054;5.294;2023-06-14T06:38:01;18.50;30.00
69990;DHT22;57331;52.054;5.294;2023-06-14T07:07:36;19.80;21.80
69990;DHT22;57331;52.054;5.294;2023-06-14T07:10:03;21.00;17.10
69990;DHT22;57331;52.054;5.294;2023-06-14T07:17:30;21.30;26.40
69990;DHT22;57331;52.054;5.294;2023-06-14T07:39:36;23.60;24.80
69990;DHT22;57331;52.054;5.294;2023-06-14T07:49:27;23.40;14.10
69990;DHT22;57331;52.054;5.294;2023-06-14T07:54:22;24.70;23.20
69990;DHT22;57331;52.054;5.294;2023-06-14T08:01:48;23.40;21.80
69990;DHT22;57331;52.054;5.294;2023-06-14T08:09:15;23.50;18.40
69990;DHT22;57331;52.054;5.294;2023-06-14T08:16:36;22.90;19.70
69990;DHT22;57331;52.054;5.294;2023-06-14T08:24:00;25.00;19.10
69990;DHT22;57331;52.054;5.294;2023-06-14T08:26:27;22.90;12.60
69990;DHT22;57331;52.054;5.294;2023-06-14T08:31:24;24.80;9.20
69990;DHT22;57331;52.054;5.294;2023-06-14T08:36:19;26.40;17.90
69990;DHT22;57331;52.054;5.294;2023-06-14T08:38:46;25.90;17.30
69990;DHT22;57331;52.054;5.294;2023-06-14T08:41:21;25.20;7.90
69990;DHT22;57331;52.054;5.294;2023-06-14T08:43:49;23.90;15.80
69990;DHT22;57331;52.054;5.294;2023-06-14T08:46:18;25.50;7.40
69990;DHT22;57331;52.054;5.294;2023-06-14T08:48:49;27.10;16.30
69990;DHT22;57331;52.054;5.294;2023-06-14T08:51:21;24.70;7.70
69990;DHT22;57331;52.054;5.294;2023-06-14T08:53:53;25.10;14.50
69990;DHT22;57331;52.054;5.294;2023-06-14T08:56:27;27.50;15.00
69990;DHT22;57331;52.054;5.294;2023-06-14T08:58:56;25.20;13.30
69990;DHT22;57331;52.054;5.294;2023-06-14T09:01:24;24.70;13.20
69990;DHT22;57331;52.054;5.294;2023-06-14T09:03:51;25.00;12.60
69990;DHT22;57331;52.054;5.294;2023-06-14T09:06:19;24.90;12.40
69990;DHT22;57331;52.054;5.294;2023-06-14T09:08:49;25.80;12.80
69990;DHT22;57331;52.054;5.294;2023-06-14T09:11:18;26.60;12.80
69990;DHT22;57331;52.054;5.294;2023-06-14T09:13:46;27.50;13.50
69990;DHT22;57331;52.054;5.294;2023-06-14T09:16:13;26.40;12.70
69990;DHT22;57331;52.054;5.294;2023-06-14T09:18:41;28.10;13.30
69990;DHT22;57331;52.054;5.294;2023-06-14T09:21:11;28.10;13.80
69990;DHT22;57331;52.054;5.294;2023-06-14T09:23:40;27.00;5.20
69990;DHT22;57331;52.054;5.294;2023-06-14T09:26:12;27.10;13.00
69990;DHT22;57331;52.054;5.294;2023-06-14T09:28:44;28.20;13.00
69990;DHT22;57331;52.054;5.294;2023-06-14T09:31:13;27.70;13.00
69990;DHT22;57331;52.054;5.294;2023-06-14T09:33:48;27.60;4.80
69990;DHT22;57331;52.054;5.294;2023-06-14T09:36:21;27.60;4.50
69990;DHT22;57331;52.054;5.294;2023-06-14T09:39:02;27.40;11.80
69990;DHT22;57331;52.054;5.294;2023-06-14T09:41:38;27.90;4.20
69990;DHT22;57331;52.054;5.294;2023-06-14T09:44:08;28.10;4.50
69990;DHT22;57331;52.054;5.294;2023-06-14T09:46:41;27.10;10.10
69990;DHT22;57331;52.054;5.294;2023-06-14T09:49:08;28.90;10.70
69990;DHT22;57331;52.054;5.294;2023-06-14T09:51:42;28.50;3.60
69990;DHT22;57331;52.054;5.294;2023-06-14T09:54:15;28.70;3.40
69990;DHT22;57331;52.054;5.294;2023-06-14T09:56:45;28.80;3.30
69990;DHT22;57331;52.054;5.294;2023-06-14T09:59:16;28.30;9.70
69990;DHT22;57331;52.054;5.294;2023-06-14T10:01:46;29.10;9.10
69990;DHT22;57331;52.054;5.294;2023-06-14T10:04:15;29.10;2.40
69990;DHT22;57331;52.054;5.294;2023-06-14T10:06:45;29.70;9.00
69990;DHT22;57331;52.054;5.294;2023-06-14T10:09:13;30.00;9.00
69990;DHT22;57331;52.054;5.294;2023-06-14T10:11:41;29.90;8.90
69990;DHT22;57331;52.054;5.294;2023-06-14T10:14:12;29.40;8.70
69990;DHT22;57331;52.054;5.294;2023-06-14T10:16:57;29.10;8.30
69990;DHT22;57331;52.054;5.294;2023-06-14T10:19:25;29.70;1.50
69990;DHT22;57331;52.054;5.294;2023-06-14T10:24:32;29.90;1.50
69990;DHT22;57331;52.054;5.294;2023-06-14T10:27:00;30.10;1.60
69990;DHT22;57331;52.054;5.294;2023-06-14T10:29:28;30.00;6.80
69990;DHT22;57331;52.054;5.294;2023-06-14T10:32:00;30.00;8.10
69990;DHT22;57331;52.054;5.294;2023-06-14T10:34:31;30.40;1.00
69990;DHT22;57331;52.054;5.294;2023-06-14T10:37:06;30.50;1.00
69990;DHT22;57331;52.054;5.294;2023-06-14T10:39:41;30.50;1.00
69990;DHT22;57331;52.054;5.294;2023-06-14T10:42:09;30.50;1.00
69990;DHT22;57331;52.054;5.294;2023-06-14T10:44:46;30.30;7.30
69990;DHT22;57331;52.054;5.294;2023-06-14T10:47:36;31.00;1.00
69990;DHT22;57331;52.054;5.294;2023-06-14T10:50:09;31.30;1.00
69990;DHT22;57331;52.054;5.294;2023-06-14T10:52:39;32.40;7.40
69990;DHT22;57331;52.054;5.294;2023-06-14T10:55:12;32.90;7.60
69990;DHT22;57331;52.054;5.294;2023-06-14T10:58:00;31.50;1.00
69990;DHT22;57331;52.054;5.294;2023-06-14T11:00:33;32.00;6.10
69990;DHT22;57331;52.054;5.294;2023-06-14T11:05:54;31.50;1.00
69990;DHT22;57331;52.054;5.294;2023-06-14T11:11:08;31.90;1.00
69990;DHT22;57331;52.054;5.294;2023-06-14T11:13:45;32.00;1.00
69990;DHT22;57331;52.054;5.294;2023-06-14T11:16:16;32.00;1.00
69990;DHT22;57331;52.054;5.294;2023-06-14T11:18:44;32.10;1.00
69990;DHT22;57331;52.054;5.294;2023-06-14T11:21:16;33.60;6.10
69990;DHT22;57331;52.054;5.294;2023-06-14T11:23:52;34.00;5.80
69990;DHT22;57331;52.054;5.294;2023-06-14T11:26:25;32.60;1.00
69990;DHT22;57331;52.054;5.294;2023-06-14T11:28:59;32.60;1.00
69990;DHT22;57331;52.054;5.294;2023-06-14T11:31:27;32.50;1.00
69990;DHT22;57331;52.054;5.294;2023-06-14T11:33:59;32.30;1.00
69990;DHT22;57331;52.054;5.294;2023-06-14T11:36:30;32.20;1.00
69990;DHT22;57331;52.054;5.294;2023-06-14T11:39:02;32.50;5.10
69990;DHT22;57331;52.054;5.294;2023-06-14T11:41:37;32.20;1.00
69990;DHT22;57331;52.054;5.294;2023-06-14T11:44:06;32.20;1.00
69990;DHT22;57331;52.054;5.294;2023-06-14T11:46:33;33.90;5.20
69990;DHT22;57331;52.054;5.294;2023-06-14T11:49:02;32.50;1.00
69990;DHT22;57331;52.054;5.294;2023-06-14T11:51:34;32.60;1.00
69990;DHT22;57331;52.054;5.294;2023-06-14T11:54:02;32.90;1.00
69990;DHT22;57331;52.054;5.294;2023-06-14T11:56:33;32.50;3.70
69990;DHT22;57331;52.054;5.294;2023-06-14T11:59:03;33.20;1.00
69990;DHT22;57331;52.054;5.294;2023-06-14T12:01:30;33.40;1.00
69990;DHT22;57331;52.054;5.294;2023-06-14T12:03:59;33.60;1.00
69990;DHT22;57331;52.054;5.294;2023-06-14T12:06:30;33.80;1.00
69990;DHT22;57331;52.054;5.294;2023-06-14T12:09:06;34.00;1.00
69990;DHT22;57331;52.054;5.294;2023-06-14T12:11:37;34.20;1.00
69990;DHT22;57331;52.054;5.294;2023-06-14T12:14:05;34.20;1.00
69990;DHT22;57331;52.054;5.294;2023-06-14T12:16:36;33.10;2.40
69990;DHT22;57331;52.054;5.294;2023-06-14T12:19:15;35.40;4.10
69990;DHT22;57331;52.054;5.294;2023-06-14T12:21:43;34.00;1.00
69990;DHT22;57331;52.054;5.294;2023-06-14T12:24:14;34.00;1.00
69990;DHT22;57331;52.054;5.294;2023-06-14T12:26:42;33.90;1.00
69990;DHT22;57331;52.054;5.294;2023-06-14T12:29:09;33.90;1.00
69990;DHT22;57331;52.054;5.294;2023-06-14T12:31:38;34.00;1.00
69990;DHT22;57331;52.054;5.294;2023-06-14T12:34:05;34.10;1.00
69990;DHT22;57331;52.054;5.294;2023-06-14T12:36:32;34.10;1.00
69990;DHT22;57331;52.054;5.294;2023-06-14T12:38:59;34.30;1.00
69990;DHT22;57331;52.054;5.294;2023-06-14T12:41:26;34.30;1.00
69990;DHT22;57331;52.054;5.294;2023-06-14T12:43:53;34.20;1.00
69990;DHT22;57331;52.054;5.294;2023-06-14T12:46:21;33.80;2.10
69990;DHT22;57331;52.054;5.294;2023-06-14T12:48:49;32.90;1.60
69990;DHT22;57331;52.054;5.294;2023-06-14T12:51:16;34.20;1.00
69990;DHT22;57331;52.054;5.294;2023-06-14T12:53:43;34.20;1.00
69990;DHT22;57331;52.054;5.294;2023-06-14T12:56:10;34.40;1.70
69990;DHT22;57331;52.054;5.294;2023-06-14T12:58:37;34.30;1.00
69990;DHT22;57331;52.054;5.294;2023-06-14T13:01:04;34.30;1.00
69990;DHT22;57331;52.054;5.294;2023-06-14T13:03:31;33.80;1.70
69990;DHT22;57331;52.054;5.294;2023-06-14T13:06:01;34.30;1.00
69990;DHT22;57331;52.054;5.294;2023-06-14T13:08:28;34.40;1.00
69990;DHT22;57331;52.054;5.294;2023-06-14T13:10:55;34.60;1.00
69990;DHT22;57331;52.054;5.294;2023-06-14T13:13:23;34.60;1.00
69990;DHT22;57331;52.054;5.294;2023-06-14T13:15:50;34.50;1.00
69990;DHT22;57331;52.054;5.294;2023-06-14T13:18:17;34.40;1.00
69990;DHT22;57331;52.054;5.294;2023-06-14T13:20:46;34.40;1.00
69990;DHT22;57331;52.054;5.294;2023-06-14T13:23:15;34.40;1.00
69990;DHT22;57331;52.054;5.294;2023-06-14T13:25:42;34.40;1.00
69990;DHT22;57331;52.054;5.294;2023-06-14T13:28:09;34.40;1.00
69990;DHT22;57331;52.054;5.294;2023-06-14T13:30:37;34.60;2.10
69990;DHT22;57331;52.054;5.294;2023-06-14T13:33:04;34.30;1.00
69990;DHT22;57331;52.054;5.294;2023-06-14T13:35:31;33.40;1.20
69990;DHT22;57331;52.054;5.294;2023-06-14T13:37:58;33.70;1.90
69990;DHT22;57331;52.054;5.294;2023-06-14T13:40:25;34.40;2.70
69990;DHT22;57331;52.054;5.294;2023-06-14T13:42:52;34.20;1.00
69990;DHT22;57331;52.054;5.294;2023-06-14T13:45:19;33.70;2.50
69990;DHT22;57331;52.054;5.294;2023-06-14T13:47:46;35.60;3.00
69990;DHT22;57331;52.054;5.294;2023-06-14T13:50:15;34.30;1.00
69990;DHT22;57331;52.054;5.294;2023-06-14T13:52:43;34.30;1.00
69990;DHT22;57331;52.054;5.294;2023-06-14T13:55:10;35.10;2.80
69990;DHT22;57331;52.054;5.294;2023-06-14T13:57:37;34.70;1.00
69990;DHT22;57331;52.054;5.294;2023-06-14T14:00:04;36.50;3.10
69990;DHT22;57331;52.054;5.294;2023-06-14T14:02:41;34.80;1.00
69990;DHT22;57331;52.054;5.294;2023-06-14T14:05:09;35.10;1.00
69990;DHT22;57331;52.054;5.294;2023-06-14T14:07:36;35.20;1.00
69990;DHT22;57331;52.054;5.294;2023-06-14T14:10:03;33.90;1.00
69990;DHT22;57331;52.054;5.294;2023-06-14T14:12:30;35.30;1.00
69990;DHT22;57331;52.054;5.294;2023-06-14T14:14:58;35.10;1.00
69990;DHT22;57331;52.054;5.294;2023-06-14T14:17:25;35.10;1.00
69990;DHT22;57331;52.054;5.294;2023-06-14T14:19:52;34.90;1.00
69990;DHT22;57331;52.054;5.294;2023-06-14T14:22:19;35.00;1.00
69990;DHT22;57331;52.054;5.294;2023-06-14T14:24:46;34.90;1.00
69990;DHT22;57331;52.054;5.294;2023-06-14T14:27:14;34.90;1.00
69990;DHT22;57331;52.054;5.294;2023-06-14T14:29:41;34.80;1.00
69990;DHT22;57331;52.054;5.294;2023-06-14T14:32:08;34.80;1.00
69990;DHT22;57331;52.054;5.294;2023-06-14T14:34:37;34.70;1.00
69990;DHT22;57331;52.054;5.294;2023-06-14T14:37:04;34.70;1.00
69990;DHT22;57331;52.054;5.294;2023-06-14T14:39:31;36.10;3.00
69990;DHT22;57331;52.054;5.294;2023-06-14T14:41:58;33.80;2.10
69990;DHT22;57331;52.054;5.294;2023-06-14T14:44:25;34.90;1.00
69990;DHT22;57331;52.054;5.294;2023-06-14T14:46:52;33.90;1.00
69990;DHT22;57331;52.054;5.294;2023-06-14T14:49:19;35.40;1.00
69990;DHT22;57331;52.054;5.294;2023-06-14T14:51:47;35.30;1.00
69990;DHT22;57331;52.054;5.294;2023-06-14T14:54:14;35.20;1.00
69990;DHT22;57331;52.054;5.294;2023-06-14T14:56:41;35.20;1.00
69990;DHT22;57331;52.054;5.294;2023-06-14T14:59:08;35.30;1.00
69990;DHT22;57331;52.054;5.294;2023-06-14T15:01:35;35.40;1.00
69990;DHT22;57331;52.054;5.294;2023-06-14T15:04:02;35.40;1.00
69990;DHT22;57331;52.054;5.294;2023-06-14T15:06:29;35.40;1.00
69990;DHT22;57331;52.054;5.294;2023-06-14T15:08:56;35.40;1.00
69990;DHT22;57331;52.054;5.294;2023-06-14T15:11:23;35.30;1.00
69990;DHT22;57331;52.054;5.294;2023-06-14T15:13:50;35.00;1.00
69990;DHT22;57331;52.054;5.294;2023-06-14T15:16:17;35.00;1.00
69990;DHT22;57331;52.054;5.294;2023-06-14T15:18:44;34.90;1.00
69990;DHT22;57331;52.054;5.294;2023-06-14T15:21:12;33.80;1.00
69990;DHT22;57331;52.054;5.294;2023-06-14T15:23:39;33.70;1.00
69990;DHT22;57331;52.054;5.294;2023-06-14T15:26:06;34.90;1.00
69990;DHT22;57331;52.054;5.294;2023-06-14T15:28:33;33.40;1.10
69990;DHT22;57331;52.054;5.294;2023-06-14T15:31:00;34.80;1.00
69990;DHT22;57331;52.054;5.294;2023-06-14T15:33:27;34.90;1.00
69990;DHT22;57331;52.054;5.294;2023-06-14T15:35:54;35.10;1.00
69990;DHT22;57331;52.054;5.294;2023-06-14T15:38:22;35.20;1.00
69990;DHT22;57331;52.054;5.294;2023-06-14T15:40:49;35.10;1.00
69990;DHT22;57331;52.054;5.294;2023-06-14T15:43:18;35.80;2.10
69990;DHT22;57331;52.054;5.294;2023-06-14T15:45:45;34.80;1.00
69990;DHT22;57331;52.054;5.294;2023-06-14T15:48:12;34.90;1.00
69990;DHT22;57331;52.054;5.294;2023-06-14T15:50:39;35.00;1.00
69990;DHT22;57331;52.054;5.294;2023-06-14T15:53:06;37.40;1.00
69990;DHT22;57331;52.054;5.294;2023-06-14T15:55:33;35.30;1.00
69990;DHT22;57331;52.054;5.294;2023-06-14T15:58:00;34.90;1.00
69990;DHT22;57331;52.054;5.294;2023-06-14T16:00:27;35.10;1.00
69990;DHT22;57331;52.054;5.294;2023-06-14T16:02:54;34.90;1.00
69990;DHT22;57331;52.054;5.294;2023-06-14T16:05:21;34.90;1.00
69990;DHT22;57331;52.054;5.294;2023-06-14T16:07:48;33.70;1.00
69990;DHT22;57331;52.054;5.294;2023-06-14T16:10:15;35.00;1.00
69990;DHT22;57331;52.054;5.294;2023-06-14T16:12:42;35.20;1.90
69990;DHT22;57331;52.054;5.294;2023-06-14T16:15:10;34.70;1.00
69990;DHT22;57331;52.054;5.294;2023-06-14T16:17:37;34.80;1.90
69990;DHT22;57331;52.054;5.294;2023-06-14T16:20:04;34.60;1.00
69990;DHT22;57331;52.054;5.294;2023-06-14T16:22:32;34.30;1.00
69990;DHT22;57331;52.054;5.294;2023-06-14T16:24:59;34.10;1.00
69990;DHT22;57331;52.054;5.294;2023-06-14T16:27:26;34.00;1.00
69990;DHT22;57331;52.054;5.294;2023-06-14T16:29:53;34.30;3.40
69990;DHT22;57331;52.054;5.294;2023-06-14T16:32:20;33.50;1.00
69990;DHT22;57331;52.054;5.294;2023-06-14T16:34:47;33.30;1.00
69990;DHT22;57331;52.054;5.294;2023-06-14T16:37:14;33.50;3.40
69990;DHT22;57331;52.054;5.294;2023-06-14T16:39:41;32.70;3.10
69990;DHT22;57331;52.054;5.294;2023-06-14T16:42:08;33.20;1.00
69990;DHT22;57331;52.054;5.294;2023-06-14T16:44:35;33.10;1.00
69990;DHT22;57331;52.054;5.294;2023-06-14T16:47:02;33.10;1.00
69990;DHT22;57331;52.054;5.294;2023-06-14T16:49:30;33.10;1.00
69990;DHT22;57331;52.054;5.294;2023-06-14T16:51:57;33.00;1.00
69990;DHT22;57331;52.054;5.294;2023-06-14T16:54:24;33.10;1.00
69990;DHT22;57331;52.054;5.294;2023-06-14T16:56:52;33.20;1.00
69990;DHT22;57331;52.054;5.294;2023-06-14T16:59:18;33.30;1.00
69990;DHT22;57331;52.054;5.294;2023-06-14T17:01:49;33.30;1.00
69990;DHT22;57331;52.054;5.294;2023-06-14T17:04:16;33.20;1.00
69990;DHT22;57331;52.054;5.294;2023-06-14T17:06:44;32.90;1.00
69990;DHT22;57331;52.054;5.294;2023-06-14T17:09:11;32.70;1.00
69990;DHT22;57331;52.054;5.294;2023-06-14T17:11:40;32.40;1.00
69990;DHT22;57331;52.054;5.294;2023-06-14T17:14:07;32.40;1.00
69990;DHT22;57331;52.054;5.294;2023-06-14T17:16:35;32.40;1.00
69990;DHT22;57331;52.054;5.294;2023-06-14T17:19:02;32.50;1.00
69990;DHT22;57331;52.054;5.294;2023-06-14T17:21:31;31.40;3.50
69990;DHT22;57331;52.054;5.294;2023-06-14T17:23:59;32.30;1.00
69990;DHT22;57331;52.054;5.294;2023-06-14T17:26:26;32.10;1.00
69990;DHT22;57331;52.054;5.294;2023-06-14T17:28:56;32.80;5.20
69990;DHT22;57331;52.054;5.294;2023-06-14T17:31:23;32.90;5.60
69990;DHT22;57331;52.054;5.294;2023-06-14T17:33:50;31.90;1.00
69990;DHT22;57331;52.054;5.294;2023-06-14T17:36:17;30.30;4.30
69990;DHT22;57331;52.054;5.294;2023-06-14T17:38:44;31.90;1.00
69990;DHT22;57331;52.054;5.294;2023-06-14T17:41:11;31.80;1.00
69990;DHT22;57331;52.054;5.294;2023-06-14T17:43:40;31.80;5.10
69990;DHT22;57331;52.054;5.294;2023-06-14T17:46:07;32.00;5.00
69990;DHT22;57331;52.054;5.294;2023-06-14T17:48:34;31.60;1.00
69990;DHT22;57331;52.054;5.294;2023-06-14T17:51:05;32.20;5.50
69990;DHT22;57331;52.054;5.294;2023-06-14T17:53:35;31.60;1.00
69990;DHT22;57331;52.054;5.294;2023-06-14T17:56:02;31.50;1.00
69990;DHT22;57331;52.054;5.294;2023-06-14T17:58:30;31.50;1.00
69990;DHT22;57331;52.054;5.294;2023-06-14T18:00:57;31.40;5.30
69990;DHT22;57331;52.054;5.294;2023-06-14T18:03:24;31.30;1.00
69990;DHT22;57331;52.054;5.294;2023-06-14T18:05:52;31.20;1.00
69990;DHT22;57331;52.054;5.294;2023-06-14T18:08:19;30.50;5.70
69990;DHT22;57331;52.054;5.294;2023-06-14T18:10:46;30.90;1.00
69990;DHT22;57331;52.054;5.294;2023-06-14T18:13:13;31.10;6.70
69990;DHT22;57331;52.054;5.294;2023-06-14T18:15:40;29.90;6.50
69990;DHT22;57331;52.054;5.294;2023-06-14T18:18:07;30.10;7.00
69990;DHT22;57331;52.054;5.294;2023-06-14T18:20:34;30.30;1.00
69990;DHT22;57331;52.054;5.294;2023-06-14T18:23:01;29.60;7.30
69990;DHT22;57331;52.054;5.294;2023-06-14T18:25:28;29.60;6.50
69990;DHT22;57331;52.054;5.294;2023-06-14T18:27:55;29.80;1.00
69990;DHT22;57331;52.054;5.294;2023-06-14T18:30:22;29.70;1.00
69990;DHT22;57331;52.054;5.294;2023-06-14T18:32:49;30.00;8.40
69990;DHT22;57331;52.054;5.294;2023-06-14T18:35:17;30.50;8.10
69990;DHT22;57331;52.054;5.294;2023-06-14T18:37:44;28.90;7.30
69990;DHT22;57331;52.054;5.294;2023-06-14T18:40:12;30.40;8.80
69990;DHT22;57331;52.054;5.294;2023-06-14T18:42:39;28.30;7.40
69990;DHT22;57331;52.054;5.294;2023-06-14T18:45:07;28.90;1.60
69990;DHT22;57331;52.054;5.294;2023-06-14T18:47:34;28.10;8.30
69990;DHT22;57331;52.054;5.294;2023-06-14T18:50:02;28.80;9.00
69990;DHT22;57331;52.054;5.294;2023-06-14T18:52:29;27.00;8.40
69990;DHT22;57331;52.054;5.294;2023-06-14T18:54:56;28.80;10.10
69990;DHT22;57331;52.054;5.294;2023-06-14T18:57:23;29.00;10.40
69990;DHT22;57331;52.054;5.294;2023-06-14T18:59:52;28.60;10.70
69990;DHT22;57331;52.054;5.294;2023-06-14T19:02:19;26.50;9.70
69990;DHT22;57331;52.054;5.294;2023-06-14T19:07:13;26.20;10.00
69990;DHT22;57331;52.054;5.294;2023-06-14T19:12:08;28.30;11.10
69990;DHT22;57331;52.054;5.294;2023-06-14T19:14:38;28.30;11.20
69990;DHT22;57331;52.054;5.294;2023-06-14T19:17:05;26.30;10.90
69990;DHT22;57331;52.054;5.294;2023-06-14T19:19:33;27.10;4.10
69990;DHT22;57331;52.054;5.294;2023-06-14T19:22:00;27.90;13.50
69990;DHT22;57331;52.054;5.294;2023-06-14T19:24:28;27.50;13.00
69990;DHT22;57331;52.054;5.294;2023-06-14T19:26:55;25.80;12.10
69990;DHT22;57331;52.054;5.294;2023-06-14T19:29:22;26.50;12.60
69990;DHT22;57331;52.054;5.294;2023-06-14T19:31:49;26.10;12.40
69990;DHT22;57331;52.054;5.294;2023-06-14T19:34:19;27.40;13.20
69990;DHT22;57331;52.054;5.294;2023-06-14T19:36:46;26.90;13.20
69990;DHT22;57331;52.054;5.294;2023-06-14T19:39:14;25.70;12.40
69990;DHT22;57331;52.054;5.294;2023-06-14T19:46:38;26.00;14.50
69990;DHT22;57331;52.054;5.294;2023-06-14T19:49:05;26.90;15.70
69990;DHT22;57331;52.054;5.294;2023-06-14T19:51:32;24.40;14.30
69990;DHT22;57331;52.054;5.294;2023-06-14T19:53:59;26.70;15.70
69990;DHT22;57331;52.054;5.294;2023-06-14T19:56:26;24.20;15.00
69990;DHT22;57331;52.054;5.294;2023-06-14T19:58:53;26.60;17.30
69990;DHT22;57331;52.054;5.294;2023-06-14T20:01:20;24.40;16.00
69990;DHT22;57331;52.054;5.294;2023-06-14T20:03:47;25.20;16.40
69990;DHT22;57331;52.054;5.294;2023-06-14T20:08:43;25.30;16.80
69990;DHT22;57331;52.054;5.294;2023-06-14T20:11:10;26.20;18.20
69990;DHT22;57331;52.054;5.294;2023-06-14T20:13:39;24.80;8.60
69990;DHT22;57331;52.054;5.294;2023-06-14T20:16:06;23.50;15.90
69990;DHT22;57331;52.054;5.294;2023-06-14T20:21:02;23.80;13.90
69990;DHT22;57331;52.054;5.294;2023-06-14T20:25:57;25.60;17.40
69990;DHT22;57331;52.054;5.294;2023-06-14T20:28:24;25.40;15.50
69990;DHT22;57331;52.054;5.294;2023-06-14T20:30:51;24.00;17.60
69990;DHT22;57331;52.054;5.294;2023-06-14T20:33:18;23.80;11.50
69990;DHT22;57331;52.054;5.294;2023-06-14T20:35:45;23.10;13.10
69990;DHT22;57331;52.054;5.294;2023-06-14T20:38:12;23.10;18.10
69990;DHT22;57331;52.054;5.294;2023-06-14T20:45:37;24.80;19.70
69990;DHT22;57331;52.054;5.294;2023-06-14T20:50:32;23.60;19.70
69990;DHT22;57331;52.054;5.294;2023-06-14T20:52:59;23.00;19.70
69990;DHT22;57331;52.054;5.294;2023-06-14T20:55:27;22.10;19.50
69990;DHT22;57331;52.054;5.294;2023-06-14T20:57:55;24.60;20.90